Time;durP1;ratioP1;P1;durP2;ratioP2;P2;SDS_P1;SDS_P2;PMS_P1;PMS_P2;Temp;Humidity;BMP_temperature;BMP_pressure;BME280_temperature;BME280_humidity;BME280_pressure;Samples;Min_cycle;Max_cycle;Signal;HPM_P1;HPM_P2
2020/12/21 00:01:28;;;;;;;;;;;;;;;26.11;26.04;102210.94;5056328;28;795;-41
2020/12/21 00:03:53;;;;;;;;;;;;;;;25.99;26.07;102205.66;5056438;28;764;-41
2020/12/21 00:06:18;;;;;;;;;;;;;;;25.46;27.13;102221.09;5056106;28;1003;-41
2020/12/21 00:08:44;;;;;;;;;;;;;;;25.56;26.96;102205.81;5056107;28;519;-41
2020/12/21 00:11:09;;;;;;;;;;;;;;;25.98;26.39;102209.34;5056484;28;748;-37
2020/12/21 00:13:42;;;;;;;;;;;;;;;26.20;25.92;102211.91;5055842;28;748;-39
2020/12/21 00:16:08;;;;;;;;;;;;;;;26.07;25.88;102213.06;5055842;28;834;-41
2020/12/21 00:18:33;;;;;;;;;;;;;;;26.04;26.08;102211.47;5056335;28;1902;-40
2020/12/21 00:20:58;;;;;;;;;;;;;;;26.27;26.06;102213.06;5056072;28;971;-40
2020/12/21 00:23:23;;;;;;;;;;;;;;;25.95;26.38;102204.25;5056336;28;812;-40
2020/12/21 00:25:49;;;;;;;;;;;;;;;26.02;26.34;102204.53;5056555;28;744;-40
2020/12/21 00:28:14;;;;;;;;;;;;;;;25.95;26.15;102201.53;5056428;28;839;-40
2020/12/21 00:30:39;;;;;;;;;;;;;;;25.95;26.17;102198.84;5056520;28;756;-41
2020/12/21 00:33:05;;;;;;;;;;;;;;;25.83;26.44;102205.34;5056142;28;1019;-42
2020/12/21 00:35:31;;;;;;;;;;;;;;;25.91;26.33;102210.88;5055458;28;983;-41
2020/12/21 00:37:56;;;;;;;;;;;;;;;25.92;26.31;102213.44;5057919;28;1965;-42
2020/12/21 00:40:21;;;;;;;;;;;;;;;25.82;26.56;102206.34;5059345;28;836;-42
2020/12/21 00:42:46;;;;;;;;;;;;;;;26.14;26.00;102206.09;5059515;28;731;-41
2020/12/21 00:45:12;;;;;;;;;;;;;;;25.88;26.31;102213.88;5075446;28;1191;-42
2020/12/21 00:47:37;;;;;;;;;;;;;;;26.02;26.13;102209.94;5079365;28;760;-40
2020/12/21 00:50:03;;;;;;;;;;;;;;;26.01;26.09;102203.66;5076389;28;1010;-41
2020/12/21 00:52:28;;;;;;;;;;;;;;;25.98;26.19;102209.34;5059899;28;822;-41
2020/12/21 00:54:53;;;;;;;;;;;;;;;26.12;26.07;102201.84;5059056;28;795;-41
2020/12/21 00:57:19;;;;;;;;;;;;;;;26.50;25.55;102197.47;5059375;28;2014;-41
2020/12/21 00:59:44;;;;;;;;;;;;;;;26.69;25.17;102211.09;5059546;28;824;-41
2020/12/21 01:02:09;;;;;;;;;;;;;;;26.20;25.81;102206.53;5058959;28;764;-41
2020/12/21 01:04:34;;;;;;;;;;;;;;;25.53;26.95;102199.84;5059658;28;848;-41
2020/12/21 01:07:00;;;;;;;;;;;;;;;25.46;27.19;102209.47;5059061;28;952;-41
2020/12/21 01:09:25;;;;;;;;;;;;;;;26.04;26.12;102202.56;5058961;28;851;-41
2020/12/21 01:11:53;;;;;;;;;;;;;;;26.02;26.22;102205.41;5059101;28;815;-41
2020/12/21 01:14:19;;;;;;;;;;;;;;;26.09;26.00;102210.22;5068350;28;843;-41
2020/12/21 01:16:44;;;;;;;;;;;;;;;26.06;26.09;102205.09;5078752;28;1902;-41
2020/12/21 01:19:09;;;;;;;;;;;;;;;25.29;27.20;102201.88;5078720;28;1055;-41
2020/12/21 01:21:34;;;;;;;;;;;;;;;25.84;26.63;102205.19;5063995;28;962;-41
2020/12/21 01:24:00;;;;;;;;;;;;;;;25.76;26.62;102208.59;5058863;28;806;-41
2020/12/21 01:26:25;;;;;;;;;;;;;;;26.32;25.82;102202.72;5058859;28;898;-41
2020/12/21 01:28:50;;;;;;;;;;;;;;;26.19;25.94;102208.38;5058999;28;756;-41
2020/12/21 01:31:16;;;;;;;;;;;;;;;25.77;26.41;102199.53;5058865;28;839;-39
2020/12/21 01:33:42;;;;;;;;;;;;;;;25.19;27.55;102198.31;5058930;28;746;-41
2020/12/21 01:36:07;;;;;;;;;;;;;;;25.69;26.89;102196.69;5058448;28;1014;-41
2020/12/21 01:38:32;;;;;;;;;;;;;;;26.12;26.25;102189.22;5064335;28;1910;-39
2020/12/21 01:40:57;;;;;;;;;;;;;;;26.40;26.09;102185.81;5078729;28;956;-42
2020/12/21 01:43:23;;;;;;;;;;;;;;;25.96;26.22;102187.06;5078391;28;874;-41
2020/12/21 01:45:49;;;;;;;;;;;;;;;25.90;26.41;102184.94;5078142;28;854;-40
2020/12/21 01:48:14;;;;;;;;;;;;;;;25.68;26.86;102189.56;5078175;28;1444;-41
2020/12/21 01:50:39;;;;;;;;;;;;;;;26.02;26.43;102183.81;5052703;28;963;-41
2020/12/21 01:53:10;;;;;;;;;;;;;;;26.09;26.35;102180.56;5057913;28;838;-40
2020/12/21 01:55:35;;;;;;;;;;;;;;;25.69;27.02;102191.28;5058465;28;855;-40
2020/12/21 01:58:00;;;;;;;;;;;;;;;26.64;25.71;102187.22;5040633;28;1897;-40
2020/12/21 02:00:28;;;;;;;;;;;;;;;25.88;26.50;102174.28;5058027;28;839;-40
2020/12/21 02:02:53;;;;;;;;;;;;;;;25.32;27.43;102171.16;5057932;28;879;-40
2020/12/21 02:05:18;;;;;;;;;;;;;;;25.11;27.75;102176.59;5039998;28;959;-41
2020/12/21 02:07:43;;;;;;;;;;;;;;;25.79;26.96;102175.97;5057803;28;748;-40
2020/12/21 02:10:09;;;;;;;;;;;;;;;25.76;26.77;102172.69;5040313;28;860;-40
2020/12/21 02:12:34;;;;;;;;;;;;;;;26.22;26.39;102177.56;5058132;28;811;-40
2020/12/21 02:14:59;;;;;;;;;;;;;;;26.76;25.34;102177.09;5057761;28;883;-38
2020/12/21 02:17:25;;;;;;;;;;;;;;;26.27;25.93;102176.16;5057691;28;1902;-40
2020/12/21 02:19:50;;;;;;;;;;;;;;;26.04;26.31;102178.28;5057496;28;1084;-40
2020/12/21 02:22:15;;;;;;;;;;;;;;;26.25;26.07;102174.59;5039715;28;1197;-38
2020/12/21 02:24:41;;;;;;;;;;;;;;;25.83;26.64;102173.84;5057755;28;738;-41
2020/12/21 02:27:06;;;;;;;;;;;;;;;26.28;26.08;102177.84;5058185;28;919;-41
2020/12/21 02:29:31;;;;;;;;;;;;;;;25.97;26.34;102171.75;5057638;28;804;-42
2020/12/21 02:31:58;;;;;;;;;;;;;;;25.67;26.86;102164.44;5057671;28;810;-41
2020/12/21 02:34:25;;;;;;;;;;;;;;;24.99;27.83;102165.88;5058191;28;768;-41
2020/12/21 02:36:50;;;;;;;;;;;;;;;25.86;26.73;102160.09;5056857;28;1965;-41
2020/12/21 02:39:15;;;;;;;;;;;;;;;25.53;27.11;102164.81;5039855;28;804;-41
2020/12/21 02:41:41;;;;;;;;;;;;;;;25.92;26.58;102164.91;5057444;28;815;-41
2020/12/21 02:44:06;;;;;;;;;;;;;;;26.48;25.64;102156.28;5064108;28;1129;-41
2020/12/21 02:46:31;;;;;;;;;;;;;;;26.19;25.98;102164.38;5077103;28;839;-42
2020/12/21 02:48:56;;;;;;;;;;;;;;;25.83;26.61;102154.97;5077261;28;779;-41
2020/12/21 02:51:22;;;;;;;;;;;;;;;25.88;26.52;102151.84;5063359;28;951;-42
2020/12/21 02:53:47;;;;;;;;;;;;;;;25.75;26.71;102155.69;5057450;28;867;-41
2020/12/21 02:56:12;;;;;;;;;;;;;;;25.94;26.42;102155.84;5057095;28;788;-41
2020/12/21 02:58:38;;;;;;;;;;;;;;;26.14;26.05;102159.41;5056925;28;2028;-39
2020/12/21 03:01:03;;;;;;;;;;;;;;;26.69;25.49;102159.78;5056874;28;764;-42
2020/12/21 03:03:28;;;;;;;;;;;;;;;26.57;25.41;102151.88;5056941;28;812;-42
2020/12/21 03:05:54;;;;;;;;;;;;;;;26.04;26.06;102151.31;5056820;28;1003;-41
2020/12/21 03:08:19;;;;;;;;;;;;;;;25.03;27.69;102145.81;5056827;28;772;-42
2020/12/21 03:10:44;;;;;;;;;;;;;;;24.82;28.21;102141.25;5056847;28;847;-40
2020/12/21 03:13:09;;;;;;;;;;;;;;;26.04;26.42;102140.53;5056869;28;784;-42
2020/12/21 03:15:35;;;;;;;;;;;;;;;25.87;26.56;102144.78;5056717;28;796;-38
2020/12/21 03:18:00;;;;;;;;;;;;;;;26.47;25.56;102146.50;5056494;28;1910;-42
2020/12/21 03:20:25;;;;;;;;;;;;;;;26.22;25.99;102150.59;5017094;28;948;-42
2020/12/21 03:22:51;;;;;;;;;;;;;;;25.78;26.59;102141.94;5017154;28;811;-41
2020/12/21 03:25:16;;;;;;;;;;;;;;;25.88;26.52;102144.63;5016933;28;835;-42
2020/12/21 03:27:41;;;;;;;;;;;;;;;25.36;27.53;102144.78;5017323;28;792;-42
2020/12/21 03:30:07;;;;;;;;;;;;;;;25.78;26.82;102144.63;5017120;28;768;-42
2020/12/21 03:32:32;;;;;;;;;;;;;;;26.13;26.06;102139.66;5016424;28;981;-41
2020/12/21 03:34:58;;;;;;;;;;;;;;;26.02;26.10;102147.91;5018986;28;1018;-41
2020/12/21 03:37:23;;;;;;;;;;;;;;;26.09;26.35;102140.09;5036522;28;1981;-41
2020/12/21 03:39:48;;;;;;;;;;;;;;;25.71;26.73;102134.56;5036261;28;752;-41
2020/12/21 03:42:13;;;;;;;;;;;;;;;25.92;26.60;102142.50;5036865;28;752;-38
2020/12/21 03:44:39;;;;;;;;;;;;;;;26.18;26.16;102139.25;5025167;28;1140;-41
2020/12/21 03:47:04;;;;;;;;;;;;;;;26.66;25.30;102133.94;5017155;28;808;-41
2020/12/21 03:49:29;;;;;;;;;;;;;;;26.12;26.05;102137.13;5016780;28;887;-41
2020/12/21 03:51:54;;;;;;;;;;;;;;;25.99;26.34;102130.16;5016446;28;951;-40
2020/12/21 03:54:20;;;;;;;;;;;;;;;26.01;26.57;102132.72;5016579;28;871;-40
2020/12/21 03:56:45;;;;;;;;;;;;;;;26.15;26.40;102129.59;5016554;28;1973;-42
2020/12/21 03:59:11;;;;;;;;;;;;;;;26.55;25.74;102129.56;5016353;28;814;-42
2020/12/21 04:01:37;;;;;;;;;;;;;;;26.04;26.22;102133.28;5016862;28;870;-39
2020/12/21 04:04:03;;;;;;;;;;;;;;;25.58;26.91;102122.16;5026720;28;1161;-40
2020/12/21 04:06:28;;;;;;;;;;;;;;;25.77;26.98;102126.75;5023727;28;1163;-40
2020/12/21 04:08:54;;;;;;;;;;;;;;;25.72;26.91;102133.53;5024812;28;1080;-41
2020/12/21 04:11:19;;;;;;;;;;;;;;;25.85;26.81;102122.50;5027978;28;1031;-35
2020/12/21 04:13:44;;;;;;;;;;;;;;;26.14;26.40;102125.19;5029351;28;1166;-42
2020/12/21 04:16:09;;;;;;;;;;;;;;;26.39;25.95;102117.53;5028938;28;1004;-42
2020/12/21 04:18:35;;;;;;;;;;;;;;;25.98;26.37;102122.22;5034774;28;1901;-40
2020/12/21 04:21:00;;;;;;;;;;;;;;;25.76;26.75;102116.94;5070181;28;1114;-41
2020/12/21 04:23:25;;;;;;;;;;;;;;;25.83;26.60;102119.06;5071527;28;1067;-42
2020/12/21 04:25:50;;;;;;;;;;;;;;;25.70;27.02;102117.53;5057634;28;1193;-36
2020/12/21 04:28:16;;;;;;;;;;;;;;;26.39;25.91;102119.38;5070249;28;1098;-40
2020/12/21 04:30:41;;;;;;;;;;;;;;;26.36;25.80;102125.06;5060028;28;1209;-41
2020/12/21 04:33:06;;;;;;;;;;;;;;;26.29;25.84;102132.84;5057294;28;1038;-36
2020/12/21 04:35:35;;;;;;;;;;;;;;;25.76;26.70;102125.03;5054910;28;1271;-41
2020/12/21 04:38:00;;;;;;;;;;;;;;;25.75;27.08;102125.19;5068252;28;1989;-40
2020/12/21 04:40:25;;;;;;;;;;;;;;;26.03;26.31;102123.50;5061639;28;1270;-41
2020/12/21 04:42:58;;;;;;;;;;;;;;;25.88;26.82;102125.75;5061970;28;1139;-35
2020/12/21 04:45:23;;;;;;;;;;;;;;;23.69;26.45;102122.84;5049554;28;1255;-37
2020/12/21 04:47:48;;;;;;;;;;;;;;;22.46;25.99;102121.66;5054436;28;1258;-36
2020/12/21 04:50:15;;;;;;;;;;;;;;;21.75;28.81;102123.31;5066548;28;1190;-39
2020/12/21 04:52:50;;;;;;;;;;;;;;;20.03;29.38;102124.31;5061878;28;1276;-39
2020/12/21 04:55:16;;;;;;;;;;;;;;;21.26;26.55;102123.22;5054481;28;1290;-37
2020/12/21 04:57:52;;;;;;;;;;;;;;;21.59;25.93;102115.53;5064052;28;1918;-38
2020/12/21 05:00:17;;;;;;;;;;;;;;;23.51;26.21;102127.00;5062104;28;1138;-39
2020/12/21 05:02:42;;;;;;;;;;;;;;;25.30;24.15;102122.81;5062874;28;1118;-44
2020/12/21 05:05:07;;;;;;;;;;;;;;;25.89;23.51;102127.44;5058993;28;951;-43
2020/12/21 05:07:33;;;;;;;;;;;;;;;26.09;23.43;102123.94;5059225;28;795;-41
2020/12/21 05:10:07;;;;;;;;;;;;;;;26.32;23.37;102127.19;5059087;28;835;-41
2020/12/21 05:12:32;;;;;;;;;;;;;;;26.58;23.21;102123.03;5059005;28;847;-41
2020/12/21 05:14:57;;;;;;;;;;;;;;;26.54;23.33;102127.88;5073534;28;892;-38
2020/12/21 05:17:23;;;;;;;;;;;;;;;26.62;23.29;102132.53;5079053;28;1961;-39
2020/12/21 05:20:00;;;;;;;;;;;;;;;27.21;22.69;102136.91;5078034;28;1230;-41
2020/12/21 05:22:25;;;;;;;;;;;;;;;27.50;22.71;102138.56;5040707;28;1495;-41
2020/12/21 05:24:50;;;;;;;;;;;;;;;27.74;22.51;102143.41;5059058;28;833;-41
2020/12/21 05:27:16;;;;;;;;;;;;;;;28.03;22.34;102140.66;5058800;28;786;-40
2020/12/21 05:29:41;;;;;;;;;;;;;;;28.04;22.25;102145.91;5058821;28;748;-41
2020/12/21 05:32:10;;;;;;;;;;;;;;;28.43;22.22;102150.13;5058721;28;806;-41
2020/12/21 05:34:36;;;;;;;;;;;;;;;28.72;21.89;102148.97;5058524;28;876;-40
2020/12/21 05:37:09;;;;;;;;;;;;;;;28.44;22.04;102153.69;5058223;28;1914;-40
2020/12/21 05:39:34;;;;;;;;;;;;;;;28.01;23.04;102148.91;5073742;28;852;-41
2020/12/21 05:42:08;;;;;;;;;;;;;;;28.53;22.88;102157.31;5077753;28;821;-36
2020/12/21 05:44:33;;;;;;;;;;;;;;;28.85;22.86;102159.38;5076109;28;1152;-39
2020/12/21 05:47:03;;;;;;;;;;;;;;;28.51;22.85;102162.03;5051442;28;1279;-41
2020/12/21 05:49:28;;;;;;;;;;;;;;;28.75;23.06;102163.19;5073419;28;1394;-42
2020/12/21 05:51:58;;;;;;;;;;;;;;;28.96;23.08;102160.94;5073796;28;1198;-42
2020/12/21 05:54:23;;;;;;;;;;;;;;;28.96;22.87;102163.66;5077009;28;810;-41
2020/12/21 05:56:48;;;;;;;;;;;;;;;28.82;22.89;102158.84;5078052;28;1902;-41
2020/12/21 05:59:14;;;;;;;;;;;;;;;29.08;23.00;102163.41;5076935;28;815;-41
2020/12/21 06:01:39;;;;;;;;;;;;;;;28.48;23.97;102164.03;5077149;28;775;-41
2020/12/21 06:04:04;;;;;;;;;;;;;;;28.09;25.14;102167.91;5078268;28;878;-41
2020/12/21 06:06:30;;;;;;;;;;;;;;;28.40;25.21;102173.94;5063143;28;1439;-41
2020/12/21 06:08:56;;;;;;;;;;;;;;;28.99;24.02;102175.22;5058142;28;748;-43
2020/12/21 06:11:22;;;;;;;;;;;;;;;29.07;24.14;102170.69;5057907;28;819;-42
2020/12/21 06:13:51;;;;;;;;;;;;;;;28.92;24.46;102173.13;5058588;28;693;-40
2020/12/21 06:16:17;;;;;;;;;;;;;;;28.54;23.20;102178.81;5058240;28;764;-39
2020/12/21 06:18:42;;;;;;;;;;;;;;;28.69;22.54;102180.94;5057241;28;1910;-39
2020/12/21 06:21:08;;;;;;;;;;;;;;;27.82;24.19;102172.41;5057769;28;963;-40
2020/12/21 06:23:42;;;;;;;;;;;;;;;28.65;23.62;102171.41;5057956;28;717;-41
2020/12/21 06:26:08;;;;;;;;;;;;;;;28.82;23.64;102180.50;5057811;28;819;-41
2020/12/21 06:28:33;;;;;;;;;;;;;;;28.86;23.57;102181.91;5058049;28;752;-41
2020/12/21 06:31:09;;;;;;;;;;;;;;;28.40;24.77;102177.50;5057637;28;852;-41
2020/12/21 06:33:43;;;;;;;;;;;;;;;28.22;25.35;102182.91;5057257;28;852;-41
2020/12/21 06:36:09;;;;;;;;;;;;;;;28.07;25.62;102183.47;5056253;28;948;-41
2020/12/21 06:38:47;;;;;;;;;;;;;;;28.16;25.91;102178.13;5057566;28;1918;-41
2020/12/21 06:41:13;;;;;;;;;;;;;;;28.03;26.51;102182.06;5057372;28;752;-42
2020/12/21 06:43:38;;;;;;;;;;;;;;;28.05;26.57;102182.78;5060507;28;1121;-41
2020/12/21 06:46:13;;;;;;;;;;;;;;;27.99;27.22;102184.22;5077346;28;823;-42
2020/12/21 06:48:38;;;;;;;;;;;;;;;27.98;27.23;102187.09;5077280;28;780;-41
2020/12/21 06:51:10;;;;;;;;;;;;;;;27.89;27.41;102182.59;5066281;28;951;-41
2020/12/21 06:53:35;;;;;;;;;;;;;;;27.77;27.81;102184.69;5057000;28;910;-41
2020/12/21 06:56:00;;;;;;;;;;;;;;;27.83;28.36;102189.47;5039228;28;811;-41
2020/12/21 06:58:33;;;;;;;;;;;;;;;27.85;28.20;102192.88;5057094;28;1910;-40
2020/12/21 07:00:58;;;;;;;;;;;;;;;27.17;25.21;102187.69;5057281;28;811;-41
2020/12/21 07:03:24;;;;;;;;;;;;;;;27.13;26.66;102181.72;5056750;28;812;-41
2020/12/21 07:05:55;;;;;;;;;;;;;;;27.28;26.37;102186.63;5038784;28;1273;-41
2020/12/21 07:08:21;;;;;;;;;;;;;;;27.32;26.70;102185.34;5057047;28;827;-41
2020/12/21 07:10:46;;;;;;;;;;;;;;;27.35;26.23;102189.56;5056631;28;756;-41
2020/12/21 07:13:11;;;;;;;;;;;;;;;27.45;26.39;102195.78;5039250;28;1306;-42
2020/12/21 07:15:37;;;;;;;;;;;;;;;27.93;25.97;102194.81;5056970;28;748;-41
2020/12/21 07:18:02;;;;;;;;;;;;;;;28.14;25.32;102199.06;5056408;28;1905;-41
2020/12/21 07:20:27;;;;;;;;;;;;;;;27.75;25.31;102195.66;5056578;28;1106;-41
2020/12/21 07:22:53;;;;;;;;;;;;;;;27.67;25.63;102199.09;5056436;28;827;-40
2020/12/21 07:25:20;;;;;;;;;;;;;;;27.53;25.97;102208.53;5056399;28;827;-40
2020/12/21 07:27:48;;;;;;;;;;;;;;;27.32;26.05;102208.78;5056771;28;809;-40
2020/12/21 07:30:15;;;;;;;;;;;;;;;27.83;25.69;102200.28;5056376;28;735;-41
2020/12/21 07:32:40;;;;;;;;;;;;;;;27.94;25.15;102208.22;5056291;28;792;-40
2020/12/21 07:35:08;;;;;;;;;;;;;;;28.19;24.76;102203.03;5056393;28;952;-40
2020/12/21 07:37:33;;;;;;;;;;;;;;;27.70;25.10;102200.66;5056722;28;1914;-41
2020/12/21 07:39:59;;;;;;;;;;;;;;;27.42;25.41;102206.03;5056209;28;815;-41
2020/12/21 07:42:24;;;;;;;;;;;;;;;27.41;25.32;102210.59;5056549;28;824;-41
2020/12/21 07:44:50;;;;;;;;;;;;;;;27.73;25.60;102203.91;5051029;28;1200;-41
2020/12/21 07:47:16;;;;;;;;;;;;;;;27.97;24.67;102207.03;5057825;28;1521;-41
2020/12/21 07:49:41;;;;;;;;;;;;;;;27.97;24.73;102207.03;5076153;28;820;-40
2020/12/21 07:52:06;;;;;;;;;;;;;;;27.34;25.22;102202.22;5038773;28;1050;-39
2020/12/21 07:54:32;;;;;;;;;;;;;;;26.99;25.55;102199.19;5056345;28;755;-40
2020/12/21 07:57:01;;;;;;;;;;;;;;;26.67;26.44;102189.63;5038388;28;1905;-39
2020/12/21 07:59:26;;;;;;;;;;;;;;;27.47;25.46;102195.63;5056403;28;779;-39
2020/12/21 08:01:55;;;;;;;;;;;;;;;27.60;25.60;102198.84;5059215;28;1240;-39
2020/12/21 08:04:21;;;;;;;;;;;;;;;27.08;26.37;102197.50;5065816;28;1301;-41
2020/12/21 08:06:46;;;;;;;;;;;;;;;26.89;26.46;102195.69;5071211;28;1433;-41
2020/12/21 08:09:11;;;;;;;;;;;;;;;26.06;27.81;102192.47;5076228;28;780;-40
2020/12/21 08:11:37;;;;;;;;;;;;;;;26.64;27.08;102198.84;5075947;28;740;-39
2020/12/21 08:14:02;;;;;;;;;;;;;;;27.24;26.51;102196.88;5076028;28;867;-40
2020/12/21 08:16:28;;;;;;;;;;;;;;;26.99;26.45;102192.97;5059974;28;1211;-41
2020/12/21 08:18:53;;;;;;;;;;;;;;;26.73;26.77;102196.28;5055205;28;1897;-40
2020/12/21 08:21:22;;;;;;;;;;;;;;;25.41;29.51;102199.09;5056091;28;982;-41
2020/12/21 08:23:57;;;;;;;;;;;;;;;26.83;27.05;102201.66;5056022;28;802;-41
2020/12/21 08:26:22;;;;;;;;;;;;;;;27.18;26.71;102202.00;5055939;28;808;-41
2020/12/21 08:28:49;;;;;;;;;;;;;;;26.82;26.84;102195.44;5055788;28;843;-41
2020/12/21 08:31:21;;;;;;;;;;;;;;;26.65;27.09;102197.88;5055965;28;841;-41
2020/12/21 08:33:56;;;;;;;;;;;;;;;26.46;27.81;102193.34;5055673;28;732;-41
2020/12/21 08:36:22;;;;;;;;;;;;;;;27.10;26.44;102198.22;5055555;28;1022;-39
2020/12/21 08:38:47;;;;;;;;;;;;;;;26.60;26.73;102192.06;5055891;28;1973;-38
2020/12/21 08:41:13;;;;;;;;;;;;;;;26.44;27.34;102184.56;5055506;28;806;-37
2020/12/21 08:43:38;;;;;;;;;;;;;;;26.31;28.10;102192.88;5058693;28;1081;-38
2020/12/21 08:46:07;;;;;;;;;;;;;;;26.57;27.61;102191.50;5057501;28;887;-36
2020/12/21 08:48:35;;;;;;;;;;;;;;;27.14;26.99;102188.81;5075820;28;799;-39
2020/12/21 08:51:00;;;;;;;;;;;;;;;27.13;26.76;102187.13;5065357;28;951;-40
2020/12/21 08:53:26;;;;;;;;;;;;;;;26.96;26.95;102185.16;5055657;28;807;-40
2020/12/21 08:55:51;;;;;;;;;;;;;;;26.78;27.70;102188.59;5055235;28;851;-40
2020/12/21 08:58:16;;;;;;;;;;;;;;;27.50;26.51;102196.19;5057058;28;1910;-39
2020/12/21 09:00:41;;;;;;;;;;;;;;;27.34;26.95;102183.31;5059542;28;787;-39
2020/12/21 09:03:07;;;;;;;;;;;;;;;27.14;26.95;102188.81;5059347;28;748;-41
2020/12/21 09:05:32;;;;;;;;;;;;;;;27.36;27.01;102183.19;5059117;28;947;-41
2020/12/21 09:07:57;;;;;;;;;;;;;;;27.93;26.08;102186.69;5040928;28;1621;-40
2020/12/21 09:10:22;;;;;;;;;;;;;;;27.79;26.30;102183.53;5059102;28;818;-40
2020/12/21 09:12:48;;;;;;;;;;;;;;;27.43;26.82;102175.31;5059169;28;898;-40
2020/12/21 09:15:13;;;;;;;;;;;;;;;27.46;26.89;102173.16;5075907;28;818;-40
2020/12/21 09:17:38;;;;;;;;;;;;;;;27.87;26.22;102180.91;5079023;28;1989;-40
2020/12/21 09:20:03;;;;;;;;;;;;;;;28.08;26.04;102173.47;5075815;28;1345;-40
2020/12/21 09:22:29;;;;;;;;;;;;;;;27.98;26.08;102168.16;5059035;28;978;-40
2020/12/21 09:24:54;;;;;;;;;;;;;;;27.64;26.45;102172.38;5058820;28;801;-40
2020/12/21 09:27:19;;;;;;;;;;;;;;;27.51;26.72;102167.28;5058951;28;764;-40
2020/12/21 09:29:44;;;;;;;;;;;;;;;27.71;26.67;102162.66;5058997;28;800;-39
2020/12/21 09:32:10;;;;;;;;;;;;;;;28.09;26.30;102167.09;5058581;28;874;-39
2020/12/21 09:34:35;;;;;;;;;;;;;;;28.08;25.99;102158.13;5058951;28;775;-40
2020/12/21 09:37:02;;;;;;;;;;;;;;;27.78;26.33;102151.25;5058812;28;1902;-40
2020/12/21 09:39:27;;;;;;;;;;;;;;;27.59;26.48;102151.16;5072161;28;864;-40
2020/12/21 09:41:52;;;;;;;;;;;;;;;27.82;26.55;102142.66;5078831;28;775;-41
2020/12/21 09:44:18;;;;;;;;;;;;;;;28.09;26.36;102148.97;5078481;28;917;-41
2020/12/21 09:46:43;;;;;;;;;;;;;;;28.01;26.15;102139.97;5078530;28;847;-41
2020/12/21 09:49:08;;;;;;;;;;;;;;;27.77;26.51;102139.56;5078494;28;791;-41
2020/12/21 09:51:34;;;;;;;;;;;;;;;27.54;26.76;102131.03;5062820;28;1043;-41
2020/12/21 09:53:59;;;;;;;;;;;;;;;26.88;28.28;102130.03;5058279;28;760;-41
2020/12/21 09:56:24;;;;;;;;;;;;;;;27.89;26.61;102136.63;5058221;28;804;-41
2020/12/21 09:58:49;;;;;;;;;;;;;;;28.28;26.13;102135.47;5058379;28;1906;-41
2020/12/21 10:01:15;;;;;;;;;;;;;;;27.93;26.14;102130.75;5058058;28;841;-41
2020/12/21 10:03:41;;;;;;;;;;;;;;;27.60;26.75;102133.97;5058504;28;804;-41
2020/12/21 10:06:07;;;;;;;;;;;;;;;27.54;26.94;102128.31;5057645;28;956;-42
2020/12/21 10:08:32;;;;;;;;;;;;;;;27.81;26.64;102123.91;5057920;28;760;-41
2020/12/21 10:10:58;;;;;;;;;;;;;;;28.18;26.37;102120.16;5058442;28;878;-41
2020/12/21 10:13:23;;;;;;;;;;;;;;;27.91;26.35;102116.53;5058213;28;807;-41
2020/12/21 10:15:48;;;;;;;;;;;;;;;27.64;26.63;102121.00;5057712;28;832;-41
2020/12/21 10:18:13;;;;;;;;;;;;;;;27.56;27.14;102115.50;5058040;28;1910;-40
2020/12/21 10:20:39;;;;;;;;;;;;;;;27.66;27.24;102120.84;5058273;28;959;-40
2020/12/21 10:23:04;;;;;;;;;;;;;;;28.08;26.17;102124.78;5057512;28;777;-40
2020/12/21 10:25:29;;;;;;;;;;;;;;;28.13;26.04;102116.22;5058285;28;811;-42
2020/12/21 10:27:54;;;;;;;;;;;;;;;27.95;26.06;102115.25;5057906;28;819;-42
2020/12/21 10:30:20;;;;;;;;;;;;;;;27.72;26.55;102122.97;5057453;28;822;-41
2020/12/21 10:32:45;;;;;;;;;;;;;;;27.66;26.85;102110.88;5057694;28;828;-40
2020/12/21 10:35:10;;;;;;;;;;;;;;;27.42;26.63;102116.88;5057492;28;951;-39
2020/12/21 10:37:35;;;;;;;;;;;;;;;27.94;25.53;102123.50;5060796;28;1913;-42
2020/12/21 10:40:01;;;;;;;;;;;;;;;28.22;25.33;102110.72;5060298;28;1330;-38
2020/12/21 10:42:26;;;;;;;;;;;;;;;28.02;25.74;102115.47;5059824;28;1076;-41
2020/12/21 10:44:51;;;;;;;;;;;;;;;27.74;26.26;102115.56;5071574;28;1175;-38
2020/12/21 10:47:17;;;;;;;;;;;;;;;27.63;26.31;102112.03;5068092;28;1176;-38
2020/12/21 10:49:42;;;;;;;;;;;;;;;27.43;26.06;102107.75;5059942;28;1295;-41
2020/12/21 10:52:07;;;;;;;;;;;;;;;25.63;23.28;102094.81;5057039;28;944;-41
2020/12/21 10:54:32;;;;;;;;;;;;;;;25.13;24.12;102093.81;5057251;28;764;-42
2020/12/21 10:57:02;;;;;;;;;;;;;;;24.81;23.43;102091.13;5057078;28;1955;-41
2020/12/21 10:59:27;;;;;;;;;;;;;;;23.67;25.41;102091.72;5057271;28;842;-41
2020/12/21 11:01:53;;;;;;;;;;;;;;;23.63;25.80;102087.56;5056903;28;811;-42
2020/12/21 11:04:18;;;;;;;;;;;;;;;24.33;24.86;102089.84;5057003;28;751;-41
2020/12/21 11:06:43;;;;;;;;;;;;;;;24.96;25.25;102089.94;5056759;28;952;-41
2020/12/21 11:09:09;;;;;;;;;;;;;;;24.75;24.60;102091.66;5073906;28;1195;-41
2020/12/21 11:11:34;;;;;;;;;;;;;;;24.04;24.10;102090.47;5076735;28;766;-35
2020/12/21 11:13:59;;;;;;;;;;;;;;;23.62;24.42;102100.16;5076535;28;823;-45
2020/12/21 11:16:25;;;;;;;;;;;;;;;21.96;33.64;102088.75;5076594;28;806;-42
2020/12/21 11:18:50;;;;;;;;;;;;;;;22.60;31.63;102086.66;5076245;28;1910;-42
2020/12/21 11:21:16;;;;;;;;;;;;;;;22.78;28.26;102088.00;5063637;28;963;-41
2020/12/21 11:23:41;;;;;;;;;;;;;;;23.54;27.61;102090.03;5056590;28;800;-42
2020/12/21 11:26:06;;;;;;;;;;;;;;;23.24;27.35;102080.78;5056596;28;740;-41
2020/12/21 11:28:32;;;;;;;;;;;;;;;23.23;26.63;102076.38;5056776;28;908;-41
2020/12/21 11:30:57;;;;;;;;;;;;;;;23.40;26.96;102076.88;5056403;28;820;-41
2020/12/21 11:33:22;;;;;;;;;;;;;;;23.41;26.11;102075.88;5056560;28;858;-42
2020/12/21 11:35:48;;;;;;;;;;;;;;;23.64;26.01;102076.69;5056625;28;1003;-42
2020/12/21 11:38:15;;;;;;;;;;;;;;;23.40;26.01;102074.19;5056024;28;1918;-41
2020/12/21 11:40:40;;;;;;;;;;;;;;;23.23;26.25;102079.06;5056261;28;883;-41
2020/12/21 11:43:06;;;;;;;;;;;;;;;23.42;25.99;102083.00;5056484;28;820;-41
2020/12/21 11:45:31;;;;;;;;;;;;;;;23.78;25.30;102083.63;5074497;28;1120;-42
2020/12/21 11:47:56;;;;;;;;;;;;;;;23.60;24.64;102078.81;5076416;28;788;-42
2020/12/21 11:50:22;;;;;;;;;;;;;;;23.87;25.21;102067.72;5070996;28;955;-42
2020/12/21 11:52:47;;;;;;;;;;;;;;;23.56;25.65;102071.97;5056099;28;783;-41
2020/12/21 11:55:12;;;;;;;;;;;;;;;23.35;26.15;102070.03;5056151;28;783;-41
2020/12/21 11:57:37;;;;;;;;;;;;;;;23.78;26.10;102072.88;5056028;28;1965;-41
2020/12/21 12:00:04;;;;;;;;;;;;;;;23.62;25.81;102064.38;5056429;28;840;-41
2020/12/21 12:02:29;;;;;;;;;;;;;;;23.53;26.20;102066.84;5056234;28;865;-41
2020/12/21 12:04:54;;;;;;;;;;;;;;;23.99;25.30;102071.19;5055846;28;998;-41
2020/12/21 12:07:20;;;;;;;;;;;;;;;23.94;24.46;102074.28;5055878;28;898;-42
2020/12/21 12:09:45;;;;;;;;;;;;;;;23.47;25.05;102070.88;5055915;28;780;-41
2020/12/21 12:12:10;;;;;;;;;;;;;;;23.42;25.44;102074.94;5056275;28;784;-41
2020/12/21 12:14:35;;;;;;;;;;;;;;;23.91;24.88;102069.13;5055714;28;847;-41
2020/12/21 12:17:01;;;;;;;;;;;;;;;23.49;25.24;102073.44;5058699;28;1914;-41
2020/12/21 12:19:26;;;;;;;;;;;;;;;23.77;24.69;102070.31;5075984;28;1307;-41
2020/12/21 12:21:51;;;;;;;;;;;;;;;23.83;25.14;102070.66;5057690;28;1427;-42
2020/12/21 12:24:17;;;;;;;;;;;;;;;23.93;25.06;102075.25;5055935;28;800;-43
2020/12/21 12:26:42;;;;;;;;;;;;;;;23.83;24.90;102069.78;5055978;28;811;-43
2020/12/21 12:29:08;;;;;;;;;;;;;;;23.96;24.56;102072.28;5055517;28;776;-41
2020/12/21 12:31:33;;;;;;;;;;;;;;;23.94;24.27;102075.13;5056186;28;726;-42
2020/12/21 12:33:58;;;;;;;;;;;;;;;23.59;24.72;102073.53;5065620;28;1199;-42
2020/12/21 12:36:24;;;;;;;;;;;;;;;23.72;24.69;102070.69;5073792;28;1275;-42
2020/12/21 12:38:49;;;;;;;;;;;;;;;23.93;23.89;102078.78;5072412;28;1973;-41
2020/12/21 12:41:15;;;;;;;;;;;;;;;23.71;24.59;102082.41;5072647;28;1171;-41
2020/12/21 12:43:40;;;;;;;;;;;;;;;23.54;24.92;102083.81;5079602;28;1147;-41
2020/12/21 12:46:06;;;;;;;;;;;;;;;23.61;24.29;102085.00;5079580;28;851;-41